Gig Harbor, Washington
Current Conditions -  °F | °C
As of 3:53 PM on Sunday 21 Dec 2014 (Local Time) from KTIW Reporting Station
Overcast Overcast  
Wind Chill: 52°   Ceiling: 11000
Heat Index: 52°   Visibility: 10mi
Dew Point: 46°   Wind: 10mph
Humidity: 80%   Direction: 200°SSW
Pressure: 30.01"   Gusts: NA
Location:  47.33°N, 122.59°W
Report Text: KTIW 212353Z 20009KT 10SM OVC110 11/08 A3001 RMK AO2 RAE2255 SLP164 P0000 60000 T01110078 10128 20106 50013
Loading
Personal Weather Stations






























Interactive Weather Map New forecast layout! Learn more

10-Day Weather Forecast

Advertisements
Track Severe Weather on mobile